All
Allendorf/Eder Airport (Allendorf) EDFQ Weather
There is no TAF data available at EDFQ or any nearby airports.
There is no METAR data available at EDFQ. Showing METAR data for ETHF (22 mi E).
Recent FRZ METAR history (no data for EDFQ)
| Date | Time (CEST) | Flight Rules | Wind Dir. | Speed | Type | Height AGL (ft) | Visibility | Temp (°C) | Temp (°F) | Dew Point (°C) | Dew Point (°F) | Rel. Humid. | Pressure | Density Altitude | Remarks |
|---|---|---|---|---|---|---|---|---|---|---|---|---|---|---|---|
| gap in available data | |||||||||||||||
| 02-May | 03:20PM | VFR | 190° | 9 kt | 10000 meters | 25° | 77° | 5° | 41° | 28% | 1018 mb | 1,624 ft | |||
| 02-May | 02:20PM | VFR | 190° | 8 kt | 10000 meters | 24° | 75° | 5° | 41° | 29% | 1018 mb | 1,504 ft | |||
| 02-May | 01:20PM | VFR | 170° | 9 kt | 10000 meters | 24° | 75° | 6° | 42° | 31% | 1019 mb | 1,475 ft | |||
| 02-May | 12:20PM | VFR | 170° | 7 kt | 10000 meters | 22° | 71° | 7° | 44° | 38% | 1020 mb | 1,205 ft | |||
| 02-May | 11:20AM | VFR | 200° | 9 kt | 10000 meters | 21° | 69° | 7° | 44° | 40% | 1021 mb | 1,056 ft | |||
| 02-May | 10:20AM | VFR | 150° | 5 kt | 10000 meters | 18° | 64° | 7° | 44° | 49% | 1021 mb | 696 ft | |||
| 02-May | 09:20AM | VFR | Variable | 2 kt | 10000 meters | 14° | 57° | 7° | 44° | 63% | 1022 mb | 186 ft | |||
| 02-May | 08:20AM | VFR | Calm | 10000 meters | 10° | 50° | 5° | 41° | 71% | 1022 mb | -294 ft | ||||
| 02-May | 07:20AM | VFR | Calm | 10000 meters |
6° | 42° | 3° | 37° | 81% | 1022 mb | -774 ft | ||||
| 02-May | 06:20AM | BCAT1 | Calm | 800 meters |
3° | 37° | 2° | 35° | 93% | 1022 mb | -1,134 ft | ||||
| 02-May | 05:20AM | VFR | 300° | 3 kt | 10000 meters | 4° | 39° | 3° | 37° | 93% | 1022 mb | -1,014 ft | |||
| 02-May | 04:20AM | VFR | 290° | 1 kt | 10000 meters | 4° | 39° | 3° | 37° | 93% | 1023 mb | -1,043 ft | |||
| 02-May | 03:20AM | VFR | 300° | 2 kt | 10000 meters | 6° | 42° | 4° | 39° | 87% | 1023 mb | -803 ft | |||
| 02-May | 02:20AM | VFR | 270° | 2 kt | 10000 meters | 6° | 42° | 3° | 37° | 81% | 1024 mb | -833 ft | |||
| 02-May | 01:20AM | VFR | 300° | 3 kt | 10000 meters | 7° | 44° | 4° | 39° | 81% | 1024 mb | -713 ft | |||
| 02-May | 12:20AM | VFR | 290° | 3 kt | 10000 meters | 8° | 46° | 5° | 41° | 81% | 1024 mb | -593 ft | |||
| 01-May | 11:20PM | VFR | 270° | 2 kt | 10000 meters | 8° | 46° | 5° | 41° | 81% | 1024 mb | -593 ft | |||
| 01-May | 10:20PM | VFR | 290° | 1 kt | 10000 meters | 11° | 51° | 6° | 42° | 71% | 1024 mb | -233 ft | |||
| 01-May | 09:20PM | VFR | Variable | 1 kt | 10000 meters | 15° | 59° | 5° | 41° | 51% | 1024 mb | 247 ft | |||
| 01-May | 08:20PM | VFR | 140° | 6 kt | 10000 meters | 17° | 62° | 5° | 41° | 45% | 1023 mb | 517 ft | |||
| 01-May | 07:20PM | VFR | 150° | 7 kt | 10000 meters | 21° | 69° | 4° | 39° | 33% | 1023 mb | 997 ft | |||
| 01-May | 06:20PM | VFR | 150° | 8 kt | 10000 meters | 22° | 71° | 3° | 37° | 29% | 1024 mb | 1,087 ft | |||
| 01-May | 05:20PM | VFR | 130° | 12 kt | 10000 meters | 22° | 71° | 3° | 37° | 29% | 1024 mb | 1,087 ft | |||
| 01-May | 04:20PM | VFR | 150° | 10 kt | 10000 meters | 22° | 71° | 4° | 39° | 31% | 1025 mb | 1,058 ft | |||
Login
| Your browser is unsupported. upgrade your browser |
